Terminal Aerodrome Forecast
Issued by NWS Jacksonville, FL

Home | Current Version | Previous Version | Text Only | Print | Product List | Glossary On
Versions: 1 2 3 4 5 6 7 8 9 10 11 12 13
033
FTUS42 KJAX 291120
TAFSSI
TAF
KSSI 291120Z 2912/3012 29006KT P6SM SKC
     FM291300 32007KT P6SM SKC
     FM291600 12010KT P6SM SCT060=

USA.gov is the U.S. government's official web portal to all federal, state and local government web resources and services.